KEGE/EGE METAR and TAF weather

Enter ICAO airport designator
Station Type Date Time Source
KEGE METAR 2022/11/30 10:56 UTC NOAA

KEGE 301056Z AUTO 15003KT 10SM CLR M17/M19 A3024 RMK AO2 SLP147 T11721194


Station Type Date Time Source
KEGE Decoded METAR 2022/11/30 10:56 UTC NOAA

Eagle County Regional, CO, United States (KEGE) 39-39N 106-55W
Nov 30, 2022 - 05:56 AM EST / 2022.11.30 1056 UTC
Wind: from the SSE (150 degrees) at 3 MPH (3 KT):0
Visibility: 10 mile(s):0
Sky conditions: clear
Temperature: 1.0 F (-17.2 C)
Dew Point: -2.9 F (-19.4 C)
Relative Humidity: 82%
Pressure (altimeter): 30.24 in. Hg (1024 hPa)
ob: KEGE 301056Z AUTO 15003KT 10SM CLR M17/M19 A3024 RMK AO2 SLP147 T11721194
cycle: 11

Station Type Date Time Source
KEGE TAF 2022/11/30 12:36 UTC NOAA

TAF KEGE 301133Z 3012/0112 12005KT P6SM SCT150
FM301800 VRB05KT P6SM SKC
FM010200 11005KT P6SM SKC

Example: see airport list